Time;durP1;ratioP1;P1;durP2;ratioP2;P2;SDS_P1;SDS_P2;PMS_P1;PMS_P2;Temp;Humidity;BMP_temperature;BMP_pressure;BME280_temperature;BME280_humidity;BME280_pressure;Samples;Min_cycle;Max_cycle;Signal;HPM_P1;HPM_P2
2023/06/25 00:03:52;;;;;;;9.20;8.30;;;26.90;68.90;;;;;;4659675;60;21049;-37
2023/06/25 00:08:53;;;;;;;9.13;8.32;;;27.00;68.90;;;;;;4713477;56;21010;-37
2023/06/25 00:13:54;;;;;;;9.27;8.38;;;26.90;68.90;;;;;;4836826;56;20959;-36
2023/06/25 00:18:55;;;;;;;8.93;8.02;;;26.90;68.90;;;;;;4671488;56;21578;-37
2023/06/25 00:23:56;;;;;;;8.20;7.37;;;26.90;68.90;;;;;;4660156;60;21515;-37
2023/06/25 00:28:57;;;;;;;8.73;7.82;;;26.90;68.90;;;;;;4659760;56;21030;-38
2023/06/25 00:33:58;;;;;;;8.65;7.85;;;27.00;69.00;;;;;;4689429;56;21476;-34
2023/06/25 00:39:01;;;;;;;8.35;7.57;;;26.90;68.90;;;;;;4658595;60;21038;-36
2023/06/25 00:44:06;;;;;;;8.70;7.82;;;26.90;68.90;;;;;;4769884;56;21536;-36
2023/06/25 00:49:06;;;;;;;8.80;7.90;;;26.90;68.90;;;;;;4777059;56;21002;-38
2023/06/25 00:54:07;;;;;;;9.38;8.48;;;26.90;69.00;;;;;;4962307;56;21516;-38
2023/06/25 00:59:08;;;;;;;8.55;7.75;;;26.90;68.90;;;;;;4766691;55;21099;-35
2023/06/25 01:04:19;;;;;;;9.15;7.95;;;26.90;69.00;;;;;;4769043;56;20999;-37
2023/06/25 01:09:20;;;;;;;7.82;7.12;;;26.90;68.90;;;;;;4702336;56;21488;-33
2023/06/25 01:14:24;;;;;;;8.25;7.45;;;26.90;69.00;;;;;;4662600;56;21571;-35
2023/06/25 01:19:31;;;;;;;9.00;8.10;;;26.90;69.00;;;;;;4707545;56;21894;-38
2023/06/25 01:24:36;;;;;;;;;;;26.90;69.00;;;;;;4719019;56;21042;-36
2023/06/25 01:29:38;;;;;;;8.00;7.30;;;26.90;69.00;;;;;;4702321;56;20288;-39
2023/06/25 01:34:39;;;;;;;7.95;7.25;;;26.90;69.00;;;;;;4715411;56;21627;-35
2023/06/25 01:39:39;;;;;;;8.13;7.32;;;26.90;69.00;;;;;;4701068;56;21422;-33
2023/06/25 01:44:40;;;;;;;8.00;7.25;;;26.90;69.00;;;;;;4667418;56;21591;-39
2023/06/25 01:49:41;;;;;;;7.70;7.00;;;26.90;69.00;;;;;;4659994;60;21822;-38
2023/06/25 01:54:42;;;;;;;7.72;6.97;;;26.90;69.10;;;;;;4676057;56;21554;-39
2023/06/25 01:59:43;;;;;;;7.97;7.22;;;26.90;69.00;;;;;;4870828;56;21476;-36
2023/06/25 02:04:44;;;;;;;7.97;7.18;;;26.90;69.00;;;;;;4677255;56;21014;-35
2023/06/25 02:09:44;;;;;;;7.57;6.85;;;26.90;69.00;;;;;;4777921;56;21532;-35
2023/06/25 02:14:45;;;;;;;8.38;7.57;;;26.90;69.10;;;;;;4737218;56;21006;-36
2023/06/25 02:19:46;;;;;;;7.47;6.78;;;26.90;69.00;;;;;;4747585;56;21010;-36
2023/06/25 02:24:47;;;;;;;7.47;6.68;;;26.90;69.10;;;;;;4661696;56;21106;-33
2023/06/25 02:29:48;;;;;;;7.70;6.90;;;26.90;69.00;;;;;;4876598;56;21054;-38
2023/06/25 02:34:49;;;;;;;8.30;7.50;;;26.90;69.00;;;;;;4659600;56;21070;-37
2023/06/25 02:39:49;;;;;;;9.82;7.28;;;26.90;69.10;;;;;;4734939;56;21086;-37
2023/06/25 02:44:50;;;;;;;7.55;6.80;;;26.90;69.00;;;;;;4666833;56;21006;-37
2023/06/25 02:49:51;;;;;;;7.40;6.62;;;26.90;69.70;;;;;;4769802;56;21047;-37
2023/06/25 02:54:52;;;;;;;7.43;6.47;;;26.90;69.00;;;;;;4672829;56;21021;-37
2023/06/25 02:59:53;;;;;;;7.22;6.53;;;26.90;69.10;;;;;;4659423;60;21082;-37
2023/06/25 03:04:54;;;;;;;6.75;6.15;;;26.90;69.10;;;;;;4659884;60;21473;-36
2023/06/25 03:09:55;;;;;;;6.90;6.30;;;26.90;69.10;;;;;;4806986;56;21378;-36
2023/06/25 03:14:55;;;;;;;6.43;5.72;;;26.90;69.00;;;;;;4659862;56;21058;-36
2023/06/25 03:19:56;;;;;;;7.25;6.65;;;26.90;69.00;;;;;;4726949;56;21097;-37
2023/06/25 03:24:57;;;;;;;6.55;5.97;;;26.90;69.10;;;;;;4660287;60;21061;-35
2023/06/25 03:29:58;;;;;;;6.75;6.10;;;26.90;69.10;;;;;;4659968;57;21007;-36
2023/06/25 03:35:01;;;;;;;6.20;5.60;;;26.90;69.00;;;;;;4706392;56;21490;-34
2023/06/25 03:40:02;;;;;;;6.62;6.03;;;26.90;69.00;;;;;;4658601;60;21583;-37
2023/06/25 03:45:03;;;;;;;6.87;6.30;;;26.90;69.40;;;;;;4802004;56;21455;-37
2023/06/25 03:50:05;;;;;;;6.65;6.00;;;26.90;69.00;;;;;;4659863;60;20986;-37
2023/06/25 03:55:07;;;;;;;6.55;5.95;;;26.90;69.00;;;;;;4660015;57;20986;-37
2023/06/25 04:00:08;;;;;;;6.37;5.78;;;26.90;69.00;;;;;;4694762;56;21066;-35
2023/06/25 04:05:09;;;;;;;6.72;6.12;;;26.80;68.90;;;;;;4789856;56;21019;-38
2023/06/25 04:10:10;;;;;;;7.10;6.12;;;26.90;68.90;;;;;;4659699;60;21412;-35
2023/06/25 04:15:11;;;;;;;6.80;6.20;;;26.90;68.90;;;;;;4710789;56;21336;-38
2023/06/25 04:20:12;;;;;;;6.50;5.80;;;26.90;68.90;;;;;;4661327;56;21066;-37
2023/06/25 04:25:13;;;;;;;6.30;5.70;;;26.90;68.80;;;;;;4743553;56;21022;-39
2023/06/25 04:30:14;;;;;;;6.65;6.03;;;26.90;68.80;;;;;;4729493;56;21445;-36
2023/06/25 04:35:16;;;;;;;6.20;5.70;;;26.90;68.80;;;;;;4864948;56;21110;-36
2023/06/25 04:40:16;;;;;;;6.50;5.90;;;26.80;68.80;;;;;;4776815;56;21938;-37
2023/06/25 04:45:18;;;;;;;5.93;5.43;;;26.80;68.70;;;;;;4659862;57;21030;-35
2023/06/25 04:50:20;;;;;;;6.20;5.70;;;26.80;68.70;;;;;;4659850;60;21003;-35
2023/06/25 04:55:21;;;;;;;6.10;5.60;;;26.80;68.60;;;;;;4730647;56;21176;-36
2023/06/25 05:00:21;;;;;;;6.40;5.80;;;26.90;68.70;;;;;;4659403;60;21300;-38
2023/06/25 05:05:24;;;;;;;6.32;5.75;;;26.80;68.60;;;;;;4659437;60;21070;-35
2023/06/25 05:10:24;;;;;;;6.75;6.15;;;26.90;68.70;;;;;;4670752;56;21307;-35
2023/06/25 05:15:25;;;;;;;5.97;5.47;;;26.80;68.60;;;;;;4667842;56;21651;-37
2023/06/25 05:20:26;;;;;;;6.55;5.93;;;26.80;68.60;;;;;;4706630;56;21065;-36
2023/06/25 05:25:27;;;;;;;7.50;6.07;;;26.80;68.50;;;;;;4762540;56;21800;-37
2023/06/25 05:30:32;;;;;;;6.90;6.30;;;26.80;68.60;;;;;;4690894;56;21592;-36
2023/06/25 05:35:32;;;;;;;6.53;5.93;;;26.80;68.50;;;;;;4659610;60;21496;-35
2023/06/25 05:40:33;;;;;;;6.55;5.87;;;26.80;68.60;;;;;;4773136;56;21023;-37
2023/06/25 05:45:34;;;;;;;6.37;5.78;;;26.80;68.60;;;;;;4693189;56;21039;-38
2023/06/25 05:50:35;;;;;;;7.70;5.70;;;26.80;68.60;;;;;;4782412;55;20986;-34
2023/06/25 05:55:36;;;;;;;6.55;5.95;;;26.80;68.50;;;;;;4677664;56;20994;-37
2023/06/25 06:00:38;;;;;;;6.50;5.78;;;26.80;68.60;;;;;;4659448;60;20998;-37
2023/06/25 06:05:39;;;;;;;6.78;6.07;;;26.80;68.50;;;;;;4696124;56;21374;-35
2023/06/25 06:10:40;;;;;;;6.97;6.22;;;26.80;68.60;;;;;;4697913;56;21049;-35
2023/06/25 06:15:40;;;;;;;5.93;5.37;;;26.80;68.50;;;;;;4661563;56;21010;-36
2023/06/25 06:20:41;;;;;;;6.45;5.85;;;26.80;68.50;;;;;;4660440;56;21492;-33
2023/06/25 06:25:42;;;;;;;6.50;5.90;;;26.80;68.50;;;;;;4663273;56;21098;-33
2023/06/25 06:30:43;;;;;;;6.62;6.03;;;26.80;68.50;;;;;;4669256;56;21119;-37
2023/06/25 06:35:44;;;;;;;6.25;5.65;;;26.80;68.40;;;;;;4796828;56;21580;-35
2023/06/25 06:40:45;;;;;;;5.93;5.43;;;26.80;68.40;;;;;;4922402;56;21465;-34
2023/06/25 06:45:46;;;;;;;6.47;5.87;;;26.80;68.40;;;;;;4673845;56;21010;-40
2023/06/25 06:50:46;;;;;;;6.72;5.97;;;26.80;68.40;;;;;;4682402;56;21531;-37
2023/06/25 06:55:47;;;;;;;6.15;5.55;;;26.80;68.40;;;;;;4659431;60;21066;-36
2023/06/25 07:00:48;;;;;;;6.20;5.55;;;26.80;68.40;;;;;;4658811;60;21102;-36
2023/06/25 07:05:49;;;;;;;6.20;5.70;;;26.80;68.40;;;;;;4701630;56;21936;-36
2023/06/25 07:10:50;;;;;;;6.43;5.82;;;26.80;68.30;;;;;;4702845;56;21037;-35
2023/06/25 07:15:50;;;;;;;6.72;6.12;;;26.80;68.30;;;;;;4701216;56;21654;-37
2023/06/25 07:20:51;;;;;;;7.05;6.30;;;26.80;68.90;;;;;;4658459;60;21102;-39
2023/06/25 07:25:52;;;;;;;7.20;6.53;;;26.80;68.80;;;;;;4659578;60;21501;-36
2023/06/25 07:30:53;;;;;;;6.35;5.70;;;26.80;68.20;;;;;;4801934;56;21555;-36
2023/06/25 07:35:54;;;;;;;6.95;6.20;;;26.80;68.20;;;;;;4701188;56;21149;-34
2023/06/25 07:40:55;;;;;;;7.18;6.47;;;26.80;68.20;;;;;;4724488;56;21600;-37
2023/06/25 07:45:56;;;;;;;6.78;6.07;;;26.80;68.20;;;;;;4705744;56;21058;-36
2023/06/25 07:50:56;;;;;;;6.53;5.93;;;26.80;68.80;;;;;;4659017;60;21054;-37
2023/06/25 07:55:57;;;;;;;6.78;6.18;;;26.80;68.20;;;;;;4680149;56;21050;-36
2023/06/25 08:00:59;;;;;;;7.25;6.55;;;26.80;68.10;;;;;;4753631;56;21576;-37
2023/06/25 08:06:00;;;;;;;7.70;6.43;;;26.80;68.10;;;;;;4738108;56;21512;-35
2023/06/25 08:11:00;;;;;;;8.05;6.80;;;26.80;68.10;;;;;;4660161;60;21003;-37
2023/06/25 08:16:01;;;;;;;6.62;6.03;;;26.80;68.10;;;;;;4659905;60;21552;-36
2023/06/25 08:21:03;;;;;;;7.10;6.40;;;26.80;68.00;;;;;;4658921;60;21026;-33
2023/06/25 08:26:04;;;;;;;6.90;6.20;;;26.80;68.00;;;;;;4697818;56;21043;-35
2023/06/25 08:31:05;;;;;;;7.22;6.22;;;26.80;67.90;;;;;;4703899;56;21568;-38
2023/06/25 08:36:06;;;;;;;8.27;6.37;;;26.80;67.90;;;;;;4659626;60;21602;-36
2023/06/25 08:41:07;;;;;;;7.00;6.40;;;26.80;67.90;;;;;;4659489;60;21046;-32
2023/06/25 08:46:08;;;;;;;8.27;6.53;;;26.80;67.90;;;;;;4796653;56;20993;-33
2023/06/25 08:51:17;;;;;;;7.35;6.62;;;26.80;67.80;;;;;;4669871;56;21457;-39
2023/06/25 08:56:18;;;;;;;7.45;6.70;;;26.80;67.80;;;;;;4667691;56;21159;-38
2023/06/25 09:01:20;;;;;;;7.37;6.60;;;26.80;67.80;;;;;;4684249;56;21500;-37
2023/06/25 09:06:21;;;;;;;8.13;7.32;;;26.80;67.80;;;;;;4659705;60;20990;-38
2023/06/25 09:11:29;;;;;;;7.97;6.87;;;26.80;67.70;;;;;;4713841;56;21483;-36
2023/06/25 09:16:30;;;;;;;7.10;6.40;;;26.80;67.80;;;;;;4659866;60;21114;-37
2023/06/25 09:21:38;;;;;;;7.72;6.60;;;26.80;67.70;;;;;;4669837;56;21073;-38
2023/06/25 09:26:52;;;;;;;8.13;7.35;;;26.80;67.70;;;;;;4749511;56;21579;-35
2023/06/25 09:31:53;;;;;;;7.45;6.70;;;26.80;67.70;;;;;;4659622;60;20963;-37
2023/06/25 09:36:56;;;;;;;8.50;7.60;;;26.80;67.70;;;;;;4659650;57;21485;-35
2023/06/25 09:41:58;;;;;;;8.80;7.90;;;26.80;67.60;;;;;;4661255;55;21066;-36
2023/06/25 09:47:04;;;;;;;8.30;7.00;;;26.80;67.60;;;;;;4659328;60;20987;-36
2023/06/25 09:52:15;;;;;;;8.65;7.75;;;26.80;67.50;;;;;;4712407;56;20990;-37
2023/06/25 09:57:19;;;;;;;9.85;8.63;;;26.80;67.60;;;;;;4692081;56;21481;-37
2023/06/25 10:02:21;;;;;;;9.90;8.32;;;26.80;67.50;;;;;;4659216;60;21595;-36
2023/06/25 10:07:24;;;;;;;9.65;8.02;;;26.80;68.10;;;;;;4659686;60;21532;-37
2023/06/25 10:12:25;;;;;;;10.50;8.68;;;26.80;67.50;;;;;;4659704;56;21579;-38
2023/06/25 10:17:26;;;;;;;10.95;9.18;;;26.80;67.60;;;;;;4659552;60;20993;-39
2023/06/25 10:22:28;;;;;;;12.37;9.70;;;26.80;67.50;;;;;;4659131;60;21532;-36
2023/06/25 10:27:29;;;;;;;11.90;10.02;;;26.80;67.60;;;;;;4661744;56;21511;-36
2023/06/25 10:32:30;;;;;;;12.55;10.48;;;26.80;67.50;;;;;;4684292;56;20974;-39
2023/06/25 10:37:35;;;;;;;12.35;11.05;;;26.80;67.60;;;;;;4685654;56;21549;-38
2023/06/25 10:42:37;;;;;;;11.43;9.75;;;26.80;67.50;;;;;;4738297;56;21063;-36
2023/06/25 10:47:38;;;;;;;15.02;11.80;;;26.80;67.40;;;;;;4659801;60;21456;-38
2023/06/25 10:52:40;;;;;;;13.20;10.75;;;26.80;67.50;;;;;;4660200;56;21018;-35
2023/06/25 10:57:40;;;;;;;15.45;11.68;;;26.80;67.40;;;;;;4675946;56;21552;-38
2023/06/25 11:02:41;;;;;;;13.32;10.93;;;26.80;67.50;;;;;;4669421;56;21070;-37
2023/06/25 11:07:42;;;;;;;13.80;10.98;;;26.80;67.40;;;;;;4727089;56;21331;-37
2023/06/25 11:12:43;;;;;;;15.98;12.10;;;26.80;67.40;;;;;;4851914;55;21014;-35
2023/06/25 11:17:45;;;;;;;13.98;11.40;;;26.80;67.50;;;;;;4679425;56;20994;-38
2023/06/25 11:22:46;;;;;;;16.27;12.35;;;26.80;67.40;;;;;;4683609;56;21490;-38
2023/06/25 11:27:48;;;;;;;14.02;12.13;;;26.80;67.40;;;;;;4659045;60;21082;-39
2023/06/25 11:32:49;;;;;;;15.63;12.85;;;26.80;67.40;;;;;;4659540;56;21558;-35
2023/06/25 11:37:49;;;;;;;15.18;13.00;;;26.80;67.40;;;;;;4718121;56;21343;-37
2023/06/25 11:42:51;;;;;;;16.83;13.30;;;26.80;67.40;;;;;;4846727;56;21347;-38
2023/06/25 11:47:53;;;;;;;15.90;12.63;;;26.80;67.40;;;;;;4908929;56;21086;-38
2023/06/25 11:52:56;;;;;;;16.33;13.52;;;26.80;67.40;;;;;;4660200;60;21500;-36
2023/06/25 11:57:56;;;;;;;14.80;12.77;;;26.80;67.40;;;;;;4659674;60;21452;-36
2023/06/25 12:02:57;;;;;;;14.38;12.68;;;26.80;67.40;;;;;;4698910;56;21030;-37
2023/06/25 12:07:58;;;;;;;14.63;12.37;;;26.80;67.40;;;;;;4795724;56;21468;-37
2023/06/25 12:12:59;;;;;;;14.10;12.25;;;26.80;67.40;;;;;;4706134;56;21038;-37
2023/06/25 12:18:00;;;;;;;15.18;12.52;;;26.80;67.30;;;;;;4686901;56;21540;-37
2023/06/25 12:23:01;;;;;;;12.98;11.57;;;26.80;67.30;;;;;;4697671;56;21090;-37
2023/06/25 12:28:01;;;;;;;16.02;12.82;;;26.80;67.30;;;;;;4696479;55;21007;-37
2023/06/25 12:33:02;;;;;;;13.52;11.38;;;26.80;67.30;;;;;;4659669;56;21066;-38
2023/06/25 12:38:03;;;;;;;13.70;12.05;;;26.80;67.30;;;;;;4772961;56;21046;-38
2023/06/25 12:43:04;;;;;;;14.20;11.07;;;26.80;67.20;;;;;;4763716;56;21496;-38
2023/06/25 12:48:05;;;;;;;14.90;12.30;;;26.80;67.20;;;;;;4664932;56;21025;-37
2023/06/25 12:53:06;;;;;;;14.45;11.98;;;26.80;67.20;;;;;;4718588;56;22307;-36
2023/06/25 12:58:07;;;;;;;13.23;11.05;;;26.80;67.20;;;;;;4712244;56;21419;-35
2023/06/25 13:03:08;;;;;;;14.05;11.45;;;26.80;67.20;;;;;;4744494;56;21592;-35
2023/06/25 13:08:09;;;;;;;14.85;11.23;;;26.80;67.20;;;;;;4659742;60;21927;-35
2023/06/25 13:13:10;;;;;;;13.32;11.93;;;26.80;67.20;;;;;;4745151;56;21344;-34
2023/06/25 13:18:11;;;;;;;13.05;11.55;;;26.80;67.20;;;;;;4749503;56;21375;-35
2023/06/25 13:23:12;;;;;;;13.13;10.63;;;26.80;67.30;;;;;;4658698;60;21828;-34
2023/06/25 13:28:14;;;;;;;12.05;10.82;;;26.80;67.80;;;;;;4696835;56;21800;-34
2023/06/25 13:33:15;;;;;;;14.48;11.43;;;26.80;67.20;;;;;;4659220;60;21519;-33
2023/06/25 13:38:16;;;;;;;12.90;10.80;;;26.80;67.20;;;;;;4749894;56;21046;-35
2023/06/25 13:43:16;;;;;;;14.05;11.07;;;26.80;67.20;;;;;;4683855;56;21535;-39
2023/06/25 13:48:17;;;;;;;13.38;11.60;;;26.80;67.20;;;;;;4851052;56;21109;-37
2023/06/25 13:53:19;;;;;;;12.10;10.50;;;26.80;67.20;;;;;;4659417;60;21058;-37
2023/06/25 13:58:20;;;;;;;11.85;10.63;;;26.80;67.20;;;;;;4696638;56;21937;-38
2023/06/25 14:03:22;;;;;;;11.43;10.02;;;26.80;67.20;;;;;;4663011;56;22013;-37
2023/06/25 14:08:23;;;;;;;11.82;10.55;;;26.80;67.20;;;;;;4659414;60;21579;-36
2023/06/25 14:13:24;;;;;;;12.10;10.65;;;26.80;67.20;;;;;;4687437;56;21584;-36
2023/06/25 14:18:25;;;;;;;12.07;10.85;;;26.80;67.20;;;;;;4676543;56;21628;-38
2023/06/25 14:23:26;;;;;;;12.48;10.80;;;26.80;67.20;;;;;;4698103;56;21082;-36
2023/06/25 14:28:26;;;;;;;13.43;11.40;;;26.80;67.20;;;;;;4659559;60;21014;-37
2023/06/25 14:33:30;;;;;;;14.98;11.60;;;26.80;67.20;;;;;;4699561;56;21001;-39
2023/06/25 14:38:32;;;;;;;12.18;10.70;;;26.80;67.20;;;;;;4659182;60;21501;-37
2023/06/25 14:43:32;;;;;;;12.20;10.95;;;26.80;67.20;;;;;;4658521;60;21078;-35
2023/06/25 14:48:34;;;;;;;13.18;11.10;;;26.80;67.20;;;;;;4742928;56;21639;-37
2023/06/25 14:53:36;;;;;;;12.10;10.80;;;26.80;67.20;;;;;;4659594;60;21472;-38
2023/06/25 14:58:37;;;;;;;12.48;11.18;;;26.80;67.20;;;;;;4687744;56;21507;-37
2023/06/25 15:03:38;;;;;;;12.02;10.80;;;26.80;67.20;;;;;;4849630;56;21038;-39
2023/06/25 15:08:40;;;;;;;11.40;10.20;;;26.80;67.20;;;;;;4669892;56;21484;-38
2023/06/25 15:13:41;;;;;;;12.27;10.98;;;26.80;67.20;;;;;;4659466;60;21071;-36
2023/06/25 15:18:42;;;;;;;12.60;11.12;;;26.80;67.10;;;;;;4659784;60;21062;-37
2023/06/25 15:23:43;;;;;;;11.23;10.02;;;26.80;67.20;;;;;;4659884;60;21003;-37
2023/06/25 15:28:45;;;;;;;13.05;11.27;;;26.80;67.10;;;;;;4774255;56;21523;-36
2023/06/25 15:33:47;;;;;;;11.52;10.30;;;26.80;67.20;;;;;;4659809;60;21495;-39
2023/06/25 15:38:48;;;;;;;13.38;10.73;;;26.80;67.10;;;;;;4688039;56;21563;-39
2023/06/25 15:43:49;;;;;;;13.62;10.85;;;26.80;67.10;;;;;;4715330;56;21355;-38
2023/06/25 15:48:50;;;;;;;11.73;10.43;;;26.80;67.20;;;;;;4714893;56;21492;-38
2023/06/25 15:53:50;;;;;;;11.77;10.57;;;26.80;67.10;;;;;;4668485;56;21034;-39
2023/06/25 15:58:52;;;;;;;11.55;10.32;;;26.80;67.10;;;;;;4684999;56;20995;-36
2023/06/25 16:03:53;;;;;;;12.32;10.75;;;26.80;67.10;;;;;;4659620;60;21002;-38
2023/06/25 16:08:54;;;;;;;11.90;9.98;;;26.80;67.20;;;;;;4885052;55;21575;-38
2023/06/25 16:13:54;;;;;;;12.20;10.70;;;26.80;67.10;;;;;;4669814;56;21057;-38
2023/06/25 16:18:55;;;;;;;11.38;10.18;;;26.80;67.10;;;;;;4790296;55;21129;-37
2023/06/25 16:23:56;;;;;;;11.12;10.00;;;26.80;67.20;;;;;;4918384;56;21069;-38
2023/06/25 16:28:57;;;;;;;11.38;10.23;;;26.80;67.10;;;;;;4693952;56;21049;-37
2023/06/25 16:33:58;;;;;;;12.20;10.27;;;26.80;67.20;;;;;;4742548;56;21078;-36
2023/06/25 16:38:58;;;;;;;11.55;10.18;;;26.80;67.10;;;;;;4679185;56;21106;-35
2023/06/25 16:44:00;;;;;;;13.23;11.00;;;26.80;67.20;;;;;;4811143;56;21010;-36
2023/06/25 16:49:01;;;;;;;10.75;9.68;;;26.80;67.20;;;;;;4659384;60;21003;-36
2023/06/25 16:54:03;;;;;;;11.20;10.10;;;26.80;67.10;;;;;;4670692;56;20994;-38
2023/06/25 16:59:04;;;;;;;12.35;11.07;;;26.80;67.10;;;;;;4707871;56;21583;-36
2023/06/25 17:04:05;;;;;;;11.48;10.20;;;26.80;67.00;;;;;;4659537;60;20998;-39
2023/06/25 17:09:06;;;;;;;10.95;9.85;;;26.80;67.10;;;;;;4738940;56;21452;-34
2023/06/25 17:14:07;;;;;;;11.57;10.38;;;26.80;67.10;;;;;;4761837;56;21026;-37
2023/06/25 17:19:07;;;;;;;11.75;10.52;;;26.80;67.00;;;;;;4701223;56;21010;-36
2023/06/25 17:24:08;;;;;;;11.68;10.48;;;26.80;67.00;;;;;;4729431;56;21094;-36
2023/06/25 17:29:10;;;;;;;11.02;9.90;;;26.80;67.00;;;;;;4718667;56;21449;-35
2023/06/25 17:34:10;;;;;;;10.65;9.65;;;26.80;67.00;;;;;;4659507;60;20999;-36
2023/06/25 17:39:11;;;;;;;11.52;10.02;;;26.80;67.00;;;;;;4840734;56;21078;-36
2023/06/25 17:44:12;;;;;;;10.90;9.80;;;26.80;67.10;;;;;;4707101;56;21054;-36
2023/06/25 17:49:13;;;;;;;13.02;10.43;;;26.80;67.00;;;;;;4775281;56;21507;-36
2023/06/25 17:54:14;;;;;;;10.85;9.75;;;26.80;67.00;;;;;;4659408;60;21362;-36
2023/06/25 17:59:15;;;;;;;11.45;10.25;;;26.80;67.00;;;;;;4659624;60;21017;-39
2023/06/25 18:04:17;;;;;;;11.70;9.50;;;26.80;67.10;;;;;;4670514;56;21549;-37
2023/06/25 18:09:18;;;;;;;10.15;9.15;;;26.80;67.10;;;;;;4660025;57;21513;-37
2023/06/25 18:14:20;;;;;;;10.43;9.18;;;26.80;67.10;;;;;;4684646;56;21014;-35
2023/06/25 18:19:21;;;;;;;10.65;9.57;;;26.80;67.00;;;;;;4659768;60;21045;-37
2023/06/25 18:24:23;;;;;;;10.85;9.75;;;26.80;67.10;;;;;;4665876;56;21082;-37
2023/06/25 18:29:24;;;;;;;10.82;9.73;;;26.80;67.10;;;;;;4751399;56;21477;-35
2023/06/25 18:34:24;;;;;;;10.57;9.55;;;26.80;67.00;;;;;;4888258;56;21450;-37
2023/06/25 18:39:25;;;;;;;10.80;9.70;;;26.80;67.00;;;;;;4697361;56;21094;-35
2023/06/25 18:44:26;;;;;;;10.75;9.65;;;26.80;67.00;;;;;;4695661;56;21149;-36
2023/06/25 18:49:27;;;;;;;11.57;10.38;;;26.80;67.00;;;;;;4709750;56;21488;-36
2023/06/25 18:54:28;;;;;;;11.12;10.02;;;26.80;67.00;;;;;;4659362;60;21082;-37
2023/06/25 18:59:30;;;;;;;10.75;9.65;;;26.80;67.00;;;;;;4658878;60;21461;-36
2023/06/25 19:04:31;;;;;;;10.90;9.90;;;26.80;67.00;;;;;;4660142;60;21453;-37
2023/06/25 19:09:32;;;;;;;11.20;10.10;;;26.80;67.00;;;;;;4693239;55;21063;-38
2023/06/25 19:14:33;;;;;;;11.18;10.07;;;26.80;67.70;;;;;;4659577;60;21580;-39
2023/06/25 19:19:34;;;;;;;10.95;9.82;;;26.80;67.00;;;;;;4658978;60;21082;-38
2023/06/25 19:24:34;;;;;;;11.23;10.07;;;26.70;67.00;;;;;;4763343;56;21074;-37
2023/06/25 19:29:37;;;;;;;10.52;9.43;;;26.70;67.00;;;;;;4677271;56;21477;-39
2023/06/25 19:34:38;;;;;;;11.35;10.15;;;26.70;66.90;;;;;;4797737;56;21568;-32
2023/06/25 19:39:39;;;;;;;10.57;9.57;;;26.80;67.00;;;;;;4716823;56;21034;-39
2023/06/25 19:44:40;;;;;;;10.77;9.75;;;26.80;67.00;;;;;;4706188;56;21495;-35
2023/06/25 19:49:41;;;;;;;11.45;9.93;;;26.80;67.60;;;;;;4755458;56;21536;-34
2023/06/25 19:54:41;;;;;;;10.48;9.35;;;26.70;66.90;;;;;;4781697;56;21006;-35
2023/06/25 19:59:42;;;;;;;10.80;9.70;;;26.70;67.00;;;;;;4707245;56;21476;-36
2023/06/25 20:04:43;;;;;;;12.95;9.82;;;26.70;66.90;;;;;;4832154;56;21070;-38
2023/06/25 20:09:44;;;;;;;11.52;10.32;;;26.70;67.00;;;;;;4659474;56;21018;-37
2023/06/25 20:14:45;;;;;;;13.23;10.65;;;26.70;67.00;;;;;;4659551;60;21585;-36
2023/06/25 20:19:45;;;;;;;10.73;9.63;;;26.70;67.00;;;;;;4791380;56;21505;-37
2023/06/25 20:24:47;;;;;;;11.52;10.32;;;26.70;67.00;;;;;;4696964;56;21037;-33
2023/06/25 20:29:48;;;;;;;10.82;9.73;;;26.70;67.70;;;;;;4660042;60;21547;-36
2023/06/25 20:34:49;;;;;;;12.57;10.18;;;26.70;67.00;;;;;;4659852;60;21106;-34
2023/06/25 20:39:53;;;;;;;10.75;9.65;;;26.70;67.10;;;;;;4711275;56;21472;-35
2023/06/25 20:44:54;;;;;;;11.45;10.25;;;26.70;67.00;;;;;;4931210;56;20983;-36
2023/06/25 20:49:55;;;;;;;12.05;10.05;;;26.70;67.00;;;;;;4685839;56;21527;-37
2023/06/25 20:54:56;;;;;;;11.95;10.23;;;26.70;67.00;;;;;;4659459;60;20998;-35
2023/06/25 20:59:57;;;;;;;10.80;9.75;;;26.70;67.00;;;;;;4709554;56;21002;-38
2023/06/25 21:04:58;;;;;;;12.55;10.48;;;26.70;67.00;;;;;;4660073;60;21528;-38
2023/06/25 21:09:59;;;;;;;11.57;9.80;;;26.70;67.00;;;;;;4730023;56;21109;-36
2023/06/25 21:15:00;;;;;;;10.95;9.60;;;26.70;66.90;;;;;;4689432;56;21480;-37
2023/06/25 21:20:00;;;;;;;10.98;9.80;;;26.70;67.00;;;;;;4742368;56;21003;-36
2023/06/25 21:25:02;;;;;;;11.12;9.85;;;26.70;67.00;;;;;;4714275;56;20994;-38
2023/06/25 21:30:04;;;;;;;11.90;10.02;;;26.70;66.90;;;;;;4659439;60;21094;-36
2023/06/25 21:35:06;;;;;;;10.98;9.88;;;26.70;66.90;;;;;;4692857;56;21015;-37
2023/06/25 21:40:08;;;;;;;11.00;9.02;;;26.70;66.90;;;;;;4734949;56;21588;-33
2023/06/25 21:45:08;;;;;;;10.48;9.27;;;26.70;66.90;;;;;;4747256;56;21042;-36
2023/06/25 21:50:09;;;;;;;10.77;9.43;;;26.70;66.90;;;;;;4659557;60;21078;-36
2023/06/25 21:55:10;;;;;;;11.35;9.48;;;26.70;66.90;;;;;;4747816;56;21718;-34
2023/06/25 22:00:12;;;;;;;10.07;9.07;;;26.70;66.90;;;;;;4662525;56;21030;-36
2023/06/25 22:05:13;;;;;;;11.63;9.93;;;26.70;66.90;;;;;;4696562;56;20999;-34
2023/06/25 22:10:14;;;;;;;9.77;8.88;;;26.70;67.00;;;;;;4685520;56;21505;-37
2023/06/25 22:15:16;;;;;;;9.68;8.40;;;26.70;67.00;;;;;;4674411;56;21017;-33
2023/06/25 22:20:16;;;;;;;10.70;9.57;;;26.70;67.00;;;;;;4783064;56;21574;-37
2023/06/25 22:25:18;;;;;;;10.02;9.02;;;26.70;67.00;;;;;;4695399;56;21018;-33
2023/06/25 22:30:19;;;;;;;11.75;9.40;;;26.70;67.00;;;;;;4745992;56;21067;-38
2023/06/25 22:35:20;;;;;;;10.68;9.57;;;26.70;67.00;;;;;;4689082;56;21028;-33
2023/06/25 22:40:21;;;;;;;10.95;9.30;;;26.70;67.10;;;;;;4686786;56;21010;-37
2023/06/25 22:45:21;;;;;;;10.23;9.15;;;26.70;67.00;;;;;;4659698;60;20995;-34
2023/06/25 22:50:22;;;;;;;9.40;8.50;;;26.70;67.00;;;;;;4660675;56;21018;-37
2023/06/25 22:55:24;;;;;;;10.15;9.07;;;26.70;67.00;;;;;;4748606;56;21010;-38
2023/06/25 23:00:25;;;;;;;10.38;9.27;;;26.70;67.00;;;;;;4688317;55;21013;-38
2023/06/25 23:05:26;;;;;;;9.50;8.38;;;26.70;67.00;;;;;;4659684;58;21026;-38
2023/06/25 23:10:27;;;;;;;9.50;8.60;;;26.70;67.00;;;;;;4659709;60;21018;-37
2023/06/25 23:15:27;;;;;;;10.82;9.18;;;26.70;67.00;;;;;;4782490;56;21067;-37
2023/06/25 23:20:28;;;;;;;9.27;8.38;;;26.70;67.10;;;;;;4694443;56;21516;-35
2023/06/25 23:25:29;;;;;;;9.82;8.82;;;26.70;67.00;;;;;;4730701;56;20994;-33
2023/06/25 23:30:34;;;;;;;10.23;9.13;;;26.70;67.10;;;;;;4742318;56;21118;-36
2023/06/25 23:35:37;;;;;;;9.48;8.50;;;26.70;67.10;;;;;;4659722;60;21152;-37
2023/06/25 23:40:38;;;;;;;10.73;8.95;;;26.70;67.10;;;;;;4714883;56;21508;-36
2023/06/25 23:45:38;;;;;;;9.38;8.40;;;26.70;67.10;;;;;;4665912;56;21014;-33
2023/06/25 23:50:39;;;;;;;10.25;8.95;;;26.70;67.70;;;;;;4671556;56;21489;-37
2023/06/25 23:55:40;;;;;;;9.25;8.35;;;26.70;67.10;;;;;;4659630;60;21058;-37
